Terminal Aerodrome Forecast
Issued by NWS

Home | Current Version | Previous Version | Text Only | Print | Product List | Glossary Off
Versions: 1 2 3 4 5 6 7 8 9 10 11 12

000
FTUS43 KIWX 311100
TAFSBN
TAF
KSBN 311120Z 3112/0112 04014G24KT P6SM -SHRA BKN015 OVC035
     FM311900 04012KT P6SM OVC020
     FM010100 04008KT P6SM BKN035=

USA.gov is the U.S. government's official web portal to all federal, state and local government web resources and services.